sensor_id;sensor_type;location;lat;lon;timestamp;P1;durP1;ratioP1;P2;durP2;ratioP2
17059;SDS011;8646;49.716;9.266;2023-06-22T00:01:23;9.70;;;6.33;;
17059;SDS011;8646;49.716;9.266;2023-06-22T00:04:28;10.17;;;6.50;;
17059;SDS011;8646;49.716;9.266;2023-06-22T00:07:31;9.17;;;6.90;;
17059;SDS011;8646;49.716;9.266;2023-06-22T00:10:34;9.43;;;6.77;;
17059;SDS011;8646;49.716;9.266;2023-06-22T00:13:39;14.13;;;7.77;;
17059;SDS011;8646;49.716;9.266;2023-06-22T00:16:43;12.40;;;7.33;;
17059;SDS011;8646;49.716;9.266;2023-06-22T00:19:49;14.70;;;8.33;;
17059;SDS011;8646;49.716;9.266;2023-06-22T00:22:55;12.43;;;7.80;;
17059;SDS011;8646;49.716;9.266;2023-06-22T00:25:58;13.70;;;8.40;;
17059;SDS011;8646;49.716;9.266;2023-06-22T00:29:09;14.43;;;8.10;;
17059;SDS011;8646;49.716;9.266;2023-06-22T00:32:13;11.07;;;7.73;;
17059;SDS011;8646;49.716;9.266;2023-06-22T00:35:16;9.47;;;7.03;;
17059;SDS011;8646;49.716;9.266;2023-06-22T00:38:19;11.90;;;6.70;;
17059;SDS011;8646;49.716;9.266;2023-06-22T00:41:22;9.57;;;6.83;;
17059;SDS011;8646;49.716;9.266;2023-06-22T00:44:25;14.10;;;7.57;;
17059;SDS011;8646;49.716;9.266;2023-06-22T00:47:32;14.17;;;7.60;;
17059;SDS011;8646;49.716;9.266;2023-06-22T00:50:37;14.03;;;8.00;;
17059;SDS011;8646;49.716;9.266;2023-06-22T00:53:40;8.53;;;6.93;;
17059;SDS011;8646;49.716;9.266;2023-06-22T00:56:44;14.57;;;6.83;;
17059;SDS011;8646;49.716;9.266;2023-06-22T00:59:48;10.87;;;7.17;;
17059;SDS011;8646;49.716;9.266;2023-06-22T01:02:55;14.13;;;7.17;;
17059;SDS011;8646;49.716;9.266;2023-06-22T01:06:02;10.20;;;6.97;;
17059;SDS011;8646;49.716;9.266;2023-06-22T01:09:12;13.60;;;6.97;;
17059;SDS011;8646;49.716;9.266;2023-06-22T01:12:17;12.20;;;7.37;;
17059;SDS011;8646;49.716;9.266;2023-06-22T01:15:21;12.00;;;6.97;;
17059;SDS011;8646;49.716;9.266;2023-06-22T01:18:32;9.33;;;6.97;;
17059;SDS011;8646;49.716;9.266;2023-06-22T01:21:38;15.23;;;7.77;;
17059;SDS011;8646;49.716;9.266;2023-06-22T01:24:41;14.13;;;8.20;;
17059;SDS011;8646;49.716;9.266;2023-06-22T01:27:56;15.03;;;8.97;;
17059;SDS011;8646;49.716;9.266;2023-06-22T01:31:09;12.93;;;8.70;;
17059;SDS011;8646;49.716;9.266;2023-06-22T01:34:16;13.07;;;8.80;;
17059;SDS011;8646;49.716;9.266;2023-06-22T01:37:19;12.93;;;7.73;;
17059;SDS011;8646;49.716;9.266;2023-06-22T01:40:29;17.30;;;8.40;;
17059;SDS011;8646;49.716;9.266;2023-06-22T01:43:34;13.43;;;6.83;;
17059;SDS011;8646;49.716;9.266;2023-06-22T01:46:39;11.00;;;6.97;;
17059;SDS011;8646;49.716;9.266;2023-06-22T01:49:43;12.77;;;6.93;;
17059;SDS011;8646;49.716;9.266;2023-06-22T01:52:46;8.13;;;5.87;;
17059;SDS011;8646;49.716;9.266;2023-06-22T01:55:48;12.47;;;6.33;;
17059;SDS011;8646;49.716;9.266;2023-06-22T01:58:54;4.83;;;3.53;;
17059;SDS011;8646;49.716;9.266;2023-06-22T02:02:04;6.87;;;4.73;;
17059;SDS011;8646;49.716;9.266;2023-06-22T02:05:09;7.97;;;5.30;;
17059;SDS011;8646;49.716;9.266;2023-06-22T02:08:17;10.60;;;6.70;;
17059;SDS011;8646;49.716;9.266;2023-06-22T02:11:24;10.77;;;7.50;;
17059;SDS011;8646;49.716;9.266;2023-06-22T02:14:29;11.33;;;7.03;;
17059;SDS011;8646;49.716;9.266;2023-06-22T02:17:33;16.97;;;8.30;;
17059;SDS011;8646;49.716;9.266;2023-06-22T02:20:36;10.87;;;7.87;;
17059;SDS011;8646;49.716;9.266;2023-06-22T02:23:39;12.27;;;8.50;;
17059;SDS011;8646;49.716;9.266;2023-06-22T02:26:42;12.70;;;8.17;;
17059;SDS011;8646;49.716;9.266;2023-06-22T02:29:46;13.27;;;8.17;;
17059;SDS011;8646;49.716;9.266;2023-06-22T02:32:51;13.77;;;7.90;;
17059;SDS011;8646;49.716;9.266;2023-06-22T02:35:59;10.67;;;7.67;;
17059;SDS011;8646;49.716;9.266;2023-06-22T02:39:06;12.07;;;7.87;;
17059;SDS011;8646;49.716;9.266;2023-06-22T02:42:09;12.20;;;7.70;;
17059;SDS011;8646;49.716;9.266;2023-06-22T02:45:12;12.27;;;7.70;;
17059;SDS011;8646;49.716;9.266;2023-06-22T02:48:16;15.40;;;8.13;;
17059;SDS011;8646;49.716;9.266;2023-06-22T02:51:19;13.17;;;8.47;;
17059;SDS011;8646;49.716;9.266;2023-06-22T02:54:22;10.50;;;7.40;;
17059;SDS011;8646;49.716;9.266;2023-06-22T02:57:27;11.43;;;7.40;;
17059;SDS011;8646;49.716;9.266;2023-06-22T03:00:29;12.93;;;8.03;;
17059;SDS011;8646;49.716;9.266;2023-06-22T03:03:34;9.47;;;7.50;;
17059;SDS011;8646;49.716;9.266;2023-06-22T03:06:37;14.67;;;7.83;;
17059;SDS011;8646;49.716;9.266;2023-06-22T03:09:42;13.83;;;8.03;;
17059;SDS011;8646;49.716;9.266;2023-06-22T03:12:44;15.23;;;8.57;;
17059;SDS011;8646;49.716;9.266;2023-06-22T03:15:47;11.40;;;7.70;;
17059;SDS011;8646;49.716;9.266;2023-06-22T03:18:51;10.13;;;7.40;;
17059;SDS011;8646;49.716;9.266;2023-06-22T03:21:54;12.50;;;7.60;;
17059;SDS011;8646;49.716;9.266;2023-06-22T03:24:57;10.47;;;7.43;;
17059;SDS011;8646;49.716;9.266;2023-06-22T03:28:02;16.27;;;7.47;;
17059;SDS011;8646;49.716;9.266;2023-06-22T03:31:06;10.23;;;6.70;;
17059;SDS011;8646;49.716;9.266;2023-06-22T03:34:10;11.37;;;7.33;;
17059;SDS011;8646;49.716;9.266;2023-06-22T03:37:13;10.07;;;7.60;;
17059;SDS011;8646;49.716;9.266;2023-06-22T03:40:16;13.13;;;7.77;;
17059;SDS011;8646;49.716;9.266;2023-06-22T03:43:21;10.83;;;7.83;;
17059;SDS011;8646;49.716;9.266;2023-06-22T03:46:25;12.50;;;8.13;;
17059;SDS011;8646;49.716;9.266;2023-06-22T03:49:29;10.77;;;7.70;;
17059;SDS011;8646;49.716;9.266;2023-06-22T03:52:32;12.10;;;7.40;;
17059;SDS011;8646;49.716;9.266;2023-06-22T03:55:35;11.03;;;7.60;;
17059;SDS011;8646;49.716;9.266;2023-06-22T03:58:40;15.33;;;8.77;;
17059;SDS011;8646;49.716;9.266;2023-06-22T04:01:44;11.60;;;8.30;;
17059;SDS011;8646;49.716;9.266;2023-06-22T04:04:49;12.53;;;8.37;;
17059;SDS011;8646;49.716;9.266;2023-06-22T04:07:52;12.07;;;8.43;;
17059;SDS011;8646;49.716;9.266;2023-06-22T04:10:55;15.00;;;9.00;;
17059;SDS011;8646;49.716;9.266;2023-06-22T04:13:58;15.73;;;8.50;;
17059;SDS011;8646;49.716;9.266;2023-06-22T04:17:02;13.20;;;8.67;;
17059;SDS011;8646;49.716;9.266;2023-06-22T04:20:07;11.63;;;8.60;;
17059;SDS011;8646;49.716;9.266;2023-06-22T04:23:10;13.33;;;8.97;;
17059;SDS011;8646;49.716;9.266;2023-06-22T04:26:13;13.87;;;9.10;;
17059;SDS011;8646;49.716;9.266;2023-06-22T04:29:16;14.00;;;8.87;;
17059;SDS011;8646;49.716;9.266;2023-06-22T04:32:19;15.03;;;9.00;;
17059;SDS011;8646;49.716;9.266;2023-06-22T04:35:25;14.27;;;9.60;;
17059;SDS011;8646;49.716;9.266;2023-06-22T04:38:29;15.10;;;9.50;;
17059;SDS011;8646;49.716;9.266;2023-06-22T04:41:34;16.37;;;9.13;;
17059;SDS011;8646;49.716;9.266;2023-06-22T04:44:43;13.50;;;9.07;;
17059;SDS011;8646;49.716;9.266;2023-06-22T04:47:46;14.83;;;9.07;;
17059;SDS011;8646;49.716;9.266;2023-06-22T04:50:50;14.93;;;9.10;;
17059;SDS011;8646;49.716;9.266;2023-06-22T04:53:53;18.47;;;8.97;;
17059;SDS011;8646;49.716;9.266;2023-06-22T04:57:02;14.23;;;8.50;;
17059;SDS011;8646;49.716;9.266;2023-06-22T05:00:11;14.67;;;9.10;;
17059;SDS011;8646;49.716;9.266;2023-06-22T05:03:18;12.20;;;8.57;;
17059;SDS011;8646;49.716;9.266;2023-06-22T05:06:22;14.30;;;9.17;;
17059;SDS011;8646;49.716;9.266;2023-06-22T05:09:25;14.33;;;9.10;;
17059;SDS011;8646;49.716;9.266;2023-06-22T05:12:29;15.03;;;9.47;;
17059;SDS011;8646;49.716;9.266;2023-06-22T05:15:32;14.97;;;8.97;;
17059;SDS011;8646;49.716;9.266;2023-06-22T05:18:38;14.90;;;8.97;;
17059;SDS011;8646;49.716;9.266;2023-06-22T05:21:42;11.37;;;8.13;;
17059;SDS011;8646;49.716;9.266;2023-06-22T05:24:45;13.03;;;8.47;;
17059;SDS011;8646;49.716;9.266;2023-06-22T05:27:49;13.93;;;8.13;;
17059;SDS011;8646;49.716;9.266;2023-06-22T05:30:53;12.10;;;7.77;;
17059;SDS011;8646;49.716;9.266;2023-06-22T05:33:56;11.63;;;8.47;;
17059;SDS011;8646;49.716;9.266;2023-06-22T05:37:00;11.50;;;8.00;;
17059;SDS011;8646;49.716;9.266;2023-06-22T05:40:03;11.53;;;7.67;;
17059;SDS011;8646;49.716;9.266;2023-06-22T05:43:08;10.23;;;8.20;;
17059;SDS011;8646;49.716;9.266;2023-06-22T05:46:11;12.70;;;8.70;;
17059;SDS011;8646;49.716;9.266;2023-06-22T05:49:14;12.00;;;7.97;;
17059;SDS011;8646;49.716;9.266;2023-06-22T05:52:19;11.77;;;7.67;;
17059;SDS011;8646;49.716;9.266;2023-06-22T05:55:21;13.70;;;8.37;;
17059;SDS011;8646;49.716;9.266;2023-06-22T05:58:24;14.07;;;8.80;;
17059;SDS011;8646;49.716;9.266;2023-06-22T06:01:27;11.40;;;8.17;;
17059;SDS011;8646;49.716;9.266;2023-06-22T06:04:30;10.53;;;6.93;;
17059;SDS011;8646;49.716;9.266;2023-06-22T06:07:34;10.53;;;8.10;;
17059;SDS011;8646;49.716;9.266;2023-06-22T06:10:38;11.70;;;7.67;;
17059;SDS011;8646;49.716;9.266;2023-06-22T06:13:41;15.00;;;8.57;;
17059;SDS011;8646;49.716;9.266;2023-06-22T06:16:44;11.03;;;7.77;;
17059;SDS011;8646;49.716;9.266;2023-06-22T06:19:50;11.07;;;7.80;;
17059;SDS011;8646;49.716;9.266;2023-06-22T06:22:54;10.77;;;8.43;;
17059;SDS011;8646;49.716;9.266;2023-06-22T06:25:57;10.97;;;7.47;;
17059;SDS011;8646;49.716;9.266;2023-06-22T06:29:01;15.33;;;8.47;;
17059;SDS011;8646;49.716;9.266;2023-06-22T06:32:05;10.60;;;7.77;;
17059;SDS011;8646;49.716;9.266;2023-06-22T06:35:09;10.50;;;8.37;;
17059;SDS011;8646;49.716;9.266;2023-06-22T06:38:13;11.47;;;8.40;;
17059;SDS011;8646;49.716;9.266;2023-06-22T06:41:16;14.37;;;8.33;;
17059;SDS011;8646;49.716;9.266;2023-06-22T06:44:19;12.10;;;9.30;;
17059;SDS011;8646;49.716;9.266;2023-06-22T06:47:22;13.60;;;8.00;;
17059;SDS011;8646;49.716;9.266;2023-06-22T06:50:25;11.63;;;8.57;;
17059;SDS011;8646;49.716;9.266;2023-06-22T06:53:30;13.43;;;9.03;;
17059;SDS011;8646;49.716;9.266;2023-06-22T06:56:33;15.03;;;9.10;;
17059;SDS011;8646;49.716;9.266;2023-06-22T06:59:36;18.33;;;8.30;;
17059;SDS011;8646;49.716;9.266;2023-06-22T07:02:42;12.53;;;8.63;;
17059;SDS011;8646;49.716;9.266;2023-06-22T07:05:46;11.60;;;8.33;;
17059;SDS011;8646;49.716;9.266;2023-06-22T07:08:50;13.88;;;8.82;;
17059;SDS011;8646;49.716;9.266;2023-06-22T07:11:53;11.57;;;8.88;;
17059;SDS011;8646;49.716;9.266;2023-06-22T07:15:00;13.63;;;9.52;;
17059;SDS011;8646;49.716;9.266;2023-06-22T07:18:04;11.13;;;7.97;;
17059;SDS011;8646;49.716;9.266;2023-06-22T07:21:07;10.98;;;8.98;;
17059;SDS011;8646;49.716;9.266;2023-06-22T07:24:11;11.88;;;9.43;;
17059;SDS011;8646;49.716;9.266;2023-06-22T07:27:14;11.55;;;8.55;;
17059;SDS011;8646;49.716;9.266;2023-06-22T07:30:20;11.40;;;8.35;;
17059;SDS011;8646;49.716;9.266;2023-06-22T07:33:23;13.27;;;9.50;;
17059;SDS011;8646;49.716;9.266;2023-06-22T07:36:25;13.20;;;9.13;;
17059;SDS011;8646;49.716;9.266;2023-06-22T07:39:32;13.73;;;9.00;;
17059;SDS011;8646;49.716;9.266;2023-06-22T07:42:36;12.55;;;9.20;;
17059;SDS011;8646;49.716;9.266;2023-06-22T07:45:39;11.00;;;8.65;;
17059;SDS011;8646;49.716;9.266;2023-06-22T07:48:43;12.95;;;9.30;;
17059;SDS011;8646;49.716;9.266;2023-06-22T07:51:46;16.00;;;8.95;;
17059;SDS011;8646;49.716;9.266;2023-06-22T07:54:50;13.52;;;9.07;;
17059;SDS011;8646;49.716;9.266;2023-06-22T07:58:02;11.10;;;8.60;;
17059;SDS011;8646;49.716;9.266;2023-06-22T08:01:05;12.98;;;9.32;;
17059;SDS011;8646;49.716;9.266;2023-06-22T08:04:10;12.57;;;8.88;;
17059;SDS011;8646;49.716;9.266;2023-06-22T08:07:13;14.32;;;8.52;;
17059;SDS011;8646;49.716;9.266;2023-06-22T08:10:17;12.35;;;9.15;;
17059;SDS011;8646;49.716;9.266;2023-06-22T08:13:21;10.18;;;8.40;;
17059;SDS011;8646;49.716;9.266;2023-06-22T08:16:23;14.57;;;8.88;;
17059;SDS011;8646;49.716;9.266;2023-06-22T08:19:26;12.23;;;8.73;;
17059;SDS011;8646;49.716;9.266;2023-06-22T08:22:29;14.40;;;8.75;;
17059;SDS011;8646;49.716;9.266;2023-06-22T08:25:36;11.32;;;8.98;;
17059;SDS011;8646;49.716;9.266;2023-06-22T08:28:38;11.80;;;8.57;;
17059;SDS011;8646;49.716;9.266;2023-06-22T08:31:43;13.00;;;9.48;;
17059;SDS011;8646;49.716;9.266;2023-06-22T08:34:46;10.55;;;8.38;;
17059;SDS011;8646;49.716;9.266;2023-06-22T08:37:49;15.85;;;9.40;;
17059;SDS011;8646;49.716;9.266;2023-06-22T08:40:55;11.40;;;8.85;;
17059;SDS011;8646;49.716;9.266;2023-06-22T08:43:57;14.00;;;8.77;;
17059;SDS011;8646;49.716;9.266;2023-06-22T08:47:01;12.18;;;8.32;;
17059;SDS011;8646;49.716;9.266;2023-06-22T08:50:05;10.88;;;8.23;;
17059;SDS011;8646;49.716;9.266;2023-06-22T08:53:11;11.85;;;8.15;;
17059;SDS011;8646;49.716;9.266;2023-06-22T08:56:16;11.20;;;8.60;;
17059;SDS011;8646;49.716;9.266;2023-06-22T08:59:19;14.27;;;8.35;;
17059;SDS011;8646;49.716;9.266;2023-06-22T09:02:21;10.73;;;8.82;;
17059;SDS011;8646;49.716;9.266;2023-06-22T09:05:24;14.07;;;8.27;;
17059;SDS011;8646;49.716;9.266;2023-06-22T09:08:28;13.15;;;8.05;;
17059;SDS011;8646;49.716;9.266;2023-06-22T09:11:34;11.77;;;8.45;;
17059;SDS011;8646;49.716;9.266;2023-06-22T09:14:37;10.35;;;8.23;;
17059;SDS011;8646;49.716;9.266;2023-06-22T09:17:40;11.57;;;8.50;;
17059;SDS011;8646;49.716;9.266;2023-06-22T09:20:43;10.43;;;7.55;;
17059;SDS011;8646;49.716;9.266;2023-06-22T09:23:45;11.85;;;8.20;;
17059;SDS011;8646;49.716;9.266;2023-06-22T09:26:53;10.57;;;7.90;;
17059;SDS011;8646;49.716;9.266;2023-06-22T09:29:56;12.85;;;8.05;;
17059;SDS011;8646;49.716;9.266;2023-06-22T09:32:59;10.43;;;7.72;;
17059;SDS011;8646;49.716;9.266;2023-06-22T09:36:02;10.32;;;7.43;;
17059;SDS011;8646;49.716;9.266;2023-06-22T09:39:08;12.82;;;7.78;;
17059;SDS011;8646;49.716;9.266;2023-06-22T09:42:12;11.88;;;7.80;;
17059;SDS011;8646;49.716;9.266;2023-06-22T09:45:15;10.00;;;7.50;;
17059;SDS011;8646;49.716;9.266;2023-06-22T09:48:25;10.43;;;7.45;;
17059;SDS011;8646;49.716;9.266;2023-06-22T09:51:29;9.63;;;7.85;;
17059;SDS011;8646;49.716;9.266;2023-06-22T09:54:32;12.95;;;8.23;;
17059;SDS011;8646;49.716;9.266;2023-06-22T09:57:37;10.40;;;8.07;;
17059;SDS011;8646;49.716;9.266;2023-06-22T10:00:39;9.18;;;6.90;;
17059;SDS011;8646;49.716;9.266;2023-06-22T10:03:43;12.13;;;7.22;;
17059;SDS011;8646;49.716;9.266;2023-06-22T10:06:46;12.73;;;8.07;;
17059;SDS011;8646;49.716;9.266;2023-06-22T10:09:49;10.52;;;7.25;;
17059;SDS011;8646;49.716;9.266;2023-06-22T10:12:56;10.70;;;7.90;;
17059;SDS011;8646;49.716;9.266;2023-06-22T10:16:01;10.00;;;7.85;;
17059;SDS011;8646;49.716;9.266;2023-06-22T10:19:04;10.07;;;7.38;;
17059;SDS011;8646;49.716;9.266;2023-06-22T10:22:06;11.50;;;7.97;;
17059;SDS011;8646;49.716;9.266;2023-06-22T10:25:10;11.20;;;7.57;;
17059;SDS011;8646;49.716;9.266;2023-06-22T10:28:14;9.82;;;7.78;;
17059;SDS011;8646;49.716;9.266;2023-06-22T10:31:17;9.88;;;7.57;;
17059;SDS011;8646;49.716;9.266;2023-06-22T10:34:21;11.13;;;8.23;;
17059;SDS011;8646;49.716;9.266;2023-06-22T10:37:24;11.27;;;8.07;;
17059;SDS011;8646;49.716;9.266;2023-06-22T10:40:27;13.90;;;7.53;;
17059;SDS011;8646;49.716;9.266;2023-06-22T10:43:31;11.05;;;7.80;;
17059;SDS011;8646;49.716;9.266;2023-06-22T10:46:34;13.30;;;7.68;;
17059;SDS011;8646;49.716;9.266;2023-06-22T10:49:37;10.90;;;8.05;;
17059;SDS011;8646;49.716;9.266;2023-06-22T10:52:40;11.68;;;7.30;;
17059;SDS011;8646;49.716;9.266;2023-06-22T10:55:49;12.38;;;7.80;;
17059;SDS011;8646;49.716;9.266;2023-06-22T10:58:59;11.18;;;7.40;;
17059;SDS011;8646;49.716;9.266;2023-06-22T11:02:06;10.25;;;7.18;;
17059;SDS011;8646;49.716;9.266;2023-06-22T11:05:09;9.25;;;7.50;;
17059;SDS011;8646;49.716;9.266;2023-06-22T11:08:11;12.05;;;7.45;;
17059;SDS011;8646;49.716;9.266;2023-06-22T11:11:14;10.70;;;8.48;;
17059;SDS011;8646;49.716;9.266;2023-06-22T11:14:22;13.20;;;7.45;;
17059;SDS011;8646;49.716;9.266;2023-06-22T11:17:25;10.73;;;7.70;;
17059;SDS011;8646;49.716;9.266;2023-06-22T11:20:28;9.02;;;7.20;;
17059;SDS011;8646;49.716;9.266;2023-06-22T11:23:31;12.13;;;6.45;;
17059;SDS011;8646;49.716;9.266;2023-06-22T11:26:33;11.35;;;7.68;;
17059;SDS011;8646;49.716;9.266;2023-06-22T11:29:41;11.70;;;7.60;;
17059;SDS011;8646;49.716;9.266;2023-06-22T11:32:44;11.63;;;7.38;;
17059;SDS011;8646;49.716;9.266;2023-06-22T11:35:49;10.02;;;7.35;;
17059;SDS011;8646;49.716;9.266;2023-06-22T11:38:52;10.27;;;7.22;;
17059;SDS011;8646;49.716;9.266;2023-06-22T11:41:55;12.40;;;7.60;;
17059;SDS011;8646;49.716;9.266;2023-06-22T11:44:59;7.63;;;6.60;;
17059;SDS011;8646;49.716;9.266;2023-06-22T11:48:02;8.13;;;6.03;;
17059;SDS011;8646;49.716;9.266;2023-06-22T11:51:05;11.35;;;6.75;;
17059;SDS011;8646;49.716;9.266;2023-06-22T11:54:09;12.73;;;6.57;;
17059;SDS011;8646;49.716;9.266;2023-06-22T11:57:12;8.63;;;6.07;;
17059;SDS011;8646;49.716;9.266;2023-06-22T12:00:17;8.95;;;6.18;;
17059;SDS011;8646;49.716;9.266;2023-06-22T12:03:21;11.07;;;6.45;;
17059;SDS011;8646;49.716;9.266;2023-06-22T12:06:24;7.03;;;6.25;;
17059;SDS011;8646;49.716;9.266;2023-06-22T12:09:27;9.45;;;6.20;;
17059;SDS011;8646;49.716;9.266;2023-06-22T12:12:30;8.98;;;6.25;;
17059;SDS011;8646;49.716;9.266;2023-06-22T12:15:34;9.27;;;6.13;;
17059;SDS011;8646;49.716;9.266;2023-06-22T12:18:37;12.90;;;6.60;;
17059;SDS011;8646;49.716;9.266;2023-06-22T12:21:39;6.60;;;5.70;;
17059;SDS011;8646;49.716;9.266;2023-06-22T12:24:42;9.73;;;6.10;;
17059;SDS011;8646;49.716;9.266;2023-06-22T12:27:45;10.27;;;5.88;;
17059;SDS011;8646;49.716;9.266;2023-06-22T12:30:49;8.57;;;6.07;;
17059;SDS011;8646;49.716;9.266;2023-06-22T12:33:52;7.20;;;5.53;;
17059;SDS011;8646;49.716;9.266;2023-06-22T12:36:55;9.85;;;6.15;;
17059;SDS011;8646;49.716;9.266;2023-06-22T12:39:58;8.57;;;5.63;;
17059;SDS011;8646;49.716;9.266;2023-06-22T12:43:01;9.80;;;6.25;;
17059;SDS011;8646;49.716;9.266;2023-06-22T12:46:05;13.23;;;6.35;;
17059;SDS011;8646;49.716;9.266;2023-06-22T12:49:07;8.70;;;6.10;;
17059;SDS011;8646;49.716;9.266;2023-06-22T12:52:10;9.68;;;5.63;;
17059;SDS011;8646;49.716;9.266;2023-06-22T12:55:13;10.20;;;5.63;;
17059;SDS011;8646;49.716;9.266;2023-06-22T12:58:16;8.05;;;5.45;;
17059;SDS011;8646;49.716;9.266;2023-06-22T13:01:21;8.13;;;5.57;;
17059;SDS011;8646;49.716;9.266;2023-06-22T13:04:26;8.02;;;6.05;;
17059;SDS011;8646;49.716;9.266;2023-06-22T13:07:28;10.27;;;5.90;;
17059;SDS011;8646;49.716;9.266;2023-06-22T13:10:31;9.82;;;5.85;;
17059;SDS011;8646;49.716;9.266;2023-06-22T13:13:34;8.18;;;5.43;;
17059;SDS011;8646;49.716;9.266;2023-06-22T13:16:38;9.68;;;5.63;;
17059;SDS011;8646;49.716;9.266;2023-06-22T13:19:41;9.85;;;5.68;;
17059;SDS011;8646;49.716;9.266;2023-06-22T13:22:44;12.35;;;6.18;;
17059;SDS011;8646;49.716;9.266;2023-06-22T13:25:46;9.35;;;5.95;;
17059;SDS011;8646;49.716;9.266;2023-06-22T13:28:49;8.15;;;5.78;;
17059;SDS011;8646;49.716;9.266;2023-06-22T13:31:53;7.78;;;5.75;;
17059;SDS011;8646;49.716;9.266;2023-06-22T13:34:58;7.75;;;5.40;;
17059;SDS011;8646;49.716;9.266;2023-06-22T13:38:01;11.18;;;5.72;;
17059;SDS011;8646;49.716;9.266;2023-06-22T13:41:04;13.48;;;5.72;;
17059;SDS011;8646;49.716;9.266;2023-06-22T13:44:06;8.45;;;5.78;;
17059;SDS011;8646;49.716;9.266;2023-06-22T13:47:10;7.78;;;6.05;;
17059;SDS011;8646;49.716;9.266;2023-06-22T13:50:13;8.68;;;5.90;;
17059;SDS011;8646;49.716;9.266;2023-06-22T13:53:16;11.73;;;6.43;;
17059;SDS011;8646;49.716;9.266;2023-06-22T13:56:19;8.80;;;5.80;;
17059;SDS011;8646;49.716;9.266;2023-06-22T13:59:23;10.77;;;5.70;;
17059;SDS011;8646;49.716;9.266;2023-06-22T14:02:29;11.15;;;5.88;;
17059;SDS011;8646;49.716;9.266;2023-06-22T14:05:32;10.63;;;6.15;;
17059;SDS011;8646;49.716;9.266;2023-06-22T14:08:35;11.13;;;6.10;;
17059;SDS011;8646;49.716;9.266;2023-06-22T14:11:42;9.55;;;6.20;;
17059;SDS011;8646;49.716;9.266;2023-06-22T14:14:45;10.23;;;5.88;;
17059;SDS011;8646;49.716;9.266;2023-06-22T14:17:50;14.73;;;6.63;;
17059;SDS011;8646;49.716;9.266;2023-06-22T14:20:53;11.50;;;6.25;;
17059;SDS011;8646;49.716;9.266;2023-06-22T14:23:55;13.10;;;6.50;;
17059;SDS011;8646;49.716;9.266;2023-06-22T14:26:58;6.47;;;5.30;;
17059;SDS011;8646;49.716;9.266;2023-06-22T14:30:04;11.63;;;6.15;;
17059;SDS011;8646;49.716;9.266;2023-06-22T14:33:09;10.63;;;5.85;;
17059;SDS011;8646;49.716;9.266;2023-06-22T14:36:12;13.65;;;6.25;;
17059;SDS011;8646;49.716;9.266;2023-06-22T14:39:20;9.30;;;6.03;;
17059;SDS011;8646;49.716;9.266;2023-06-22T14:42:22;10.38;;;5.88;;
17059;SDS011;8646;49.716;9.266;2023-06-22T14:45:28;10.63;;;6.28;;
17059;SDS011;8646;49.716;9.266;2023-06-22T14:48:32;11.10;;;6.38;;
17059;SDS011;8646;49.716;9.266;2023-06-22T14:51:35;13.05;;;6.97;;
17059;SDS011;8646;49.716;9.266;2023-06-22T14:54:37;11.05;;;6.07;;
17059;SDS011;8646;49.716;9.266;2023-06-22T14:57:40;9.88;;;5.65;;
17059;SDS011;8646;49.716;9.266;2023-06-22T15:00:43;11.80;;;6.25;;
17059;SDS011;8646;49.716;9.266;2023-06-22T15:03:47;11.88;;;6.18;;
17059;SDS011;8646;49.716;9.266;2023-06-22T15:06:50;11.43;;;6.18;;
17059;SDS011;8646;49.716;9.266;2023-06-22T15:09:52;9.80;;;6.68;;
17059;SDS011;8646;49.716;9.266;2023-06-22T15:12:55;11.75;;;6.50;;
17059;SDS011;8646;49.716;9.266;2023-06-22T15:15:58;7.82;;;5.78;;
17059;SDS011;8646;49.716;9.266;2023-06-22T15:19:02;10.88;;;6.15;;
17059;SDS011;8646;49.716;9.266;2023-06-22T15:22:05;11.48;;;6.07;;
17059;SDS011;8646;49.716;9.266;2023-06-22T15:25:09;12.77;;;6.50;;
17059;SDS011;8646;49.716;9.266;2023-06-22T15:28:12;11.43;;;6.10;;
17059;SDS011;8646;49.716;9.266;2023-06-22T15:31:15;13.52;;;6.63;;
17059;SDS011;8646;49.716;9.266;2023-06-22T15:34:19;10.70;;;5.95;;
17059;SDS011;8646;49.716;9.266;2023-06-22T15:37:22;9.98;;;5.93;;
17059;SDS011;8646;49.716;9.266;2023-06-22T15:40:24;13.45;;;5.40;;
17059;SDS011;8646;49.716;9.266;2023-06-22T15:43:27;13.63;;;5.25;;
17059;SDS011;8646;49.716;9.266;2023-06-22T15:46:30;11.60;;;5.20;;
17059;SDS011;8646;49.716;9.266;2023-06-22T15:49:34;7.95;;;5.13;;
17059;SDS011;8646;49.716;9.266;2023-06-22T15:52:37;10.93;;;5.15;;
17059;SDS011;8646;49.716;9.266;2023-06-22T15:55:44;17.40;;;5.80;;
17059;SDS011;8646;49.716;9.266;2023-06-22T15:58:49;17.75;;;5.00;;
17059;SDS011;8646;49.716;9.266;2023-06-22T16:01:52;11.15;;;5.70;;
17059;SDS011;8646;49.716;9.266;2023-06-22T16:04:58;13.52;;;5.85;;
17059;SDS011;8646;49.716;9.266;2023-06-22T16:08:07;10.65;;;5.57;;
17059;SDS011;8646;49.716;9.266;2023-06-22T16:11:12;12.40;;;5.40;;
17059;SDS011;8646;49.716;9.266;2023-06-22T16:14:15;13.02;;;5.32;;
17059;SDS011;8646;49.716;9.266;2023-06-22T16:17:21;10.43;;;5.40;;
17059;SDS011;8646;49.716;9.266;2023-06-22T16:20:32;10.63;;;4.90;;
17059;SDS011;8646;49.716;9.266;2023-06-22T16:23:35;12.45;;;5.82;;
17059;SDS011;8646;49.716;9.266;2023-06-22T16:26:38;11.45;;;5.55;;
17059;SDS011;8646;49.716;9.266;2023-06-22T16:29:42;11.00;;;5.25;;
17059;SDS011;8646;49.716;9.266;2023-06-22T16:32:51;9.55;;;5.13;;
17059;SDS011;8646;49.716;9.266;2023-06-22T16:35:57;11.45;;;5.97;;
17059;SDS011;8646;49.716;9.266;2023-06-22T16:39:00;12.90;;;5.30;;
17059;SDS011;8646;49.716;9.266;2023-06-22T16:42:02;15.93;;;5.80;;
17059;SDS011;8646;49.716;9.266;2023-06-22T16:45:06;10.77;;;5.47;;
17059;SDS011;8646;49.716;9.266;2023-06-22T16:48:09;11.32;;;5.60;;
17059;SDS011;8646;49.716;9.266;2023-06-22T16:51:17;14.23;;;5.40;;
17059;SDS011;8646;49.716;9.266;2023-06-22T16:54:20;16.70;;;5.43;;
17059;SDS011;8646;49.716;9.266;2023-06-22T16:57:23;14.10;;;5.35;;
17059;SDS011;8646;49.716;9.266;2023-06-22T17:00:27;14.32;;;5.30;;
17059;SDS011;8646;49.716;9.266;2023-06-22T17:03:33;13.45;;;5.75;;
17059;SDS011;8646;49.716;9.266;2023-06-22T17:06:42;10.35;;;5.70;;
17059;SDS011;8646;49.716;9.266;2023-06-22T17:09:54;12.25;;;5.68;;
17059;SDS011;8646;49.716;9.266;2023-06-22T17:12:59;14.82;;;5.40;;
17059;SDS011;8646;49.716;9.266;2023-06-22T17:16:05;11.98;;;5.28;;
17059;SDS011;8646;49.716;9.266;2023-06-22T17:19:11;11.20;;;6.00;;
17059;SDS011;8646;49.716;9.266;2023-06-22T17:22:16;11.73;;;5.57;;
17059;SDS011;8646;49.716;9.266;2023-06-22T17:25:19;13.93;;;5.70;;
17059;SDS011;8646;49.716;9.266;2023-06-22T17:28:25;15.07;;;5.70;;
17059;SDS011;8646;49.716;9.266;2023-06-22T17:31:35;9.73;;;5.60;;
17059;SDS011;8646;49.716;9.266;2023-06-22T17:34:39;8.40;;;5.30;;
17059;SDS011;8646;49.716;9.266;2023-06-22T17:37:50;9.95;;;5.78;;
17059;SDS011;8646;49.716;9.266;2023-06-22T17:41:00;13.05;;;5.85;;
17059;SDS011;8646;49.716;9.266;2023-06-22T17:44:06;13.70;;;6.10;;
17059;SDS011;8646;49.716;9.266;2023-06-22T17:47:09;11.95;;;5.78;;
17059;SDS011;8646;49.716;9.266;2023-06-22T17:50:12;11.93;;;5.95;;
17059;SDS011;8646;49.716;9.266;2023-06-22T17:53:16;12.75;;;6.15;;
17059;SDS011;8646;49.716;9.266;2023-06-22T17:56:19;11.75;;;5.90;;
17059;SDS011;8646;49.716;9.266;2023-06-22T17:59:22;10.10;;;6.20;;
17059;SDS011;8646;49.716;9.266;2023-06-22T18:02:25;13.70;;;5.60;;
17059;SDS011;8646;49.716;9.266;2023-06-22T18:05:28;12.77;;;5.88;;
17059;SDS011;8646;49.716;9.266;2023-06-22T18:08:34;10.93;;;5.35;;
17059;SDS011;8646;49.716;9.266;2023-06-22T18:11:40;11.25;;;5.30;;
17059;SDS011;8646;49.716;9.266;2023-06-22T18:14:46;9.88;;;5.70;;
17059;SDS011;8646;49.716;9.266;2023-06-22T18:17:50;12.63;;;5.70;;
17059;SDS011;8646;49.716;9.266;2023-06-22T18:20:54;10.85;;;5.55;;
17059;SDS011;8646;49.716;9.266;2023-06-22T18:24:00;15.05;;;5.65;;
17059;SDS011;8646;49.716;9.266;2023-06-22T18:27:04;9.48;;;5.70;;
17059;SDS011;8646;49.716;9.266;2023-06-22T18:30:08;14.55;;;5.97;;
17059;SDS011;8646;49.716;9.266;2023-06-22T18:33:12;12.77;;;6.05;;